createdAt,value
2022-12-31T00:01:15.617Z,1.02
2022-12-31T00:02:47.090Z,0.87
2022-12-31T00:04:18.845Z,1.00
2022-12-31T00:05:50.158Z,0.98
2022-12-31T00:07:21.521Z,0.98
2022-12-31T00:08:52.863Z,1.03
2022-12-31T00:10:24.197Z,0.87
2022-12-31T00:11:56.987Z,0.96
2022-12-31T00:13:28.501Z,0.85
2022-12-31T00:14:59.876Z,0.88
2022-12-31T00:16:31.450Z,0.88
2022-12-31T00:18:02.844Z,0.85
2022-12-31T00:19:34.128Z,0.91
2022-12-31T00:21:05.524Z,0.88
2022-12-31T00:22:36.979Z,0.91
2022-12-31T00:24:13.256Z,0.79
2022-12-31T00:25:44.714Z,0.77
2022-12-31T00:27:16.108Z,0.66
2022-12-31T00:28:47.850Z,0.81
2022-12-31T00:30:19.390Z,0.81
2022-12-31T00:31:50.835Z,0.77
2022-12-31T00:33:22.301Z,0.85
2022-12-31T00:34:53.935Z,0.76
2022-12-31T00:36:25.384Z,0.77
2022-12-31T00:37:56.734Z,0.70
2022-12-31T00:39:28.098Z,0.80
2022-12-31T00:40:59.613Z,0.59
2022-12-31T00:42:31.001Z,0.69
2022-12-31T00:44:02.340Z,0.69
2022-12-31T00:45:33.762Z,0.64
2022-12-31T00:47:05.115Z,0.62
2022-12-31T00:48:36.807Z,0.60
2022-12-31T00:50:08.220Z,0.80
2022-12-31T00:51:39.690Z,0.68
2022-12-31T00:53:11.094Z,0.66
2022-12-31T00:54:42.500Z,0.65
2022-12-31T00:56:13.846Z,0.70
2022-12-31T00:57:45.377Z,0.70
2022-12-31T00:59:16.760Z,0.70
2022-12-31T01:00:48.112Z,0.81
2022-12-31T01:02:19.692Z,0.85
2022-12-31T01:03:51.399Z,0.79
2022-12-31T01:05:22.782Z,0.86
2022-12-31T01:07:04.359Z,0.75
2022-12-31T01:08:35.843Z,0.79
2022-12-31T01:10:07.150Z,0.99
2022-12-31T01:11:38.592Z,0.83
2022-12-31T01:13:10.039Z,0.75
2022-12-31T01:14:41.826Z,0.78
2022-12-31T01:16:13.205Z,0.66
2022-12-31T01:17:44.548Z,0.75
2022-12-31T01:19:16.190Z,0.74
2022-12-31T01:20:48.940Z,0.80
2022-12-31T01:22:20.420Z,0.72
2022-12-31T01:23:51.738Z,0.75
2022-12-31T01:25:23.294Z,0.61
2022-12-31T01:26:55.140Z,0.62
2022-12-31T01:28:26.477Z,0.66
2022-12-31T01:29:57.988Z,0.58
2022-12-31T01:31:29.384Z,0.64
2022-12-31T01:33:00.769Z,0.77
2022-12-31T01:34:32.086Z,0.65
2022-12-31T01:36:03.610Z,0.55
2022-12-31T01:37:35.192Z,0.50
2022-12-31T01:39:06.468Z,0.54
2022-12-31T01:40:37.999Z,0.61
2022-12-31T01:42:09.337Z,0.58
2022-12-31T01:43:40.809Z,0.50
2022-12-31T01:45:12.095Z,0.53
2022-12-31T01:46:43.504Z,0.43
2022-12-31T01:48:14.786Z,0.50
2022-12-31T01:49:46.234Z,0.40
2022-12-31T01:51:17.650Z,0.63
2022-12-31T01:52:48.999Z,0.62
2022-12-31T01:54:20.362Z,0.42
2022-12-31T01:55:51.692Z,0.47
2022-12-31T01:57:23.018Z,0.42
2022-12-31T01:58:54.464Z,0.42
2022-12-31T02:00:27.490Z,0.50
2022-12-31T02:01:59.134Z,0.38
2022-12-31T02:03:30.741Z,0.51
2022-12-31T02:05:02.105Z,0.36
2022-12-31T02:06:33.735Z,0.44
2022-12-31T02:08:05.044Z,0.41
2022-12-31T02:09:36.314Z,0.43
2022-12-31T02:11:08.023Z,0.40
2022-12-31T02:12:39.556Z,0.45
2022-12-31T02:14:10.821Z,0.43
2022-12-31T02:15:42.115Z,0.38
2022-12-31T02:17:13.525Z,0.45
2022-12-31T02:18:44.781Z,0.40
2022-12-31T02:20:16.195Z,0.40
2022-12-31T02:21:47.482Z,0.36
2022-12-31T02:23:20.221Z,0.39
2022-12-31T02:24:51.698Z,0.42
2022-12-31T02:26:24.213Z,0.33
2022-12-31T02:27:55.559Z,0.32
2022-12-31T02:29:27.049Z,0.38
2022-12-31T02:30:58.389Z,0.37
2022-12-31T02:32:29.814Z,0.34
2022-12-31T02:34:01.387Z,0.33
2022-12-31T02:35:32.791Z,0.34
2022-12-31T02:37:04.301Z,0.44
2022-12-31T02:38:35.768Z,0.39
2022-12-31T02:40:07.052Z,0.55
2022-12-31T02:41:38.842Z,0.76
2022-12-31T02:43:10.133Z,0.44
2022-12-31T02:44:41.494Z,0.47
2022-12-31T02:46:13.021Z,0.56
2022-12-31T02:47:44.402Z,0.44
2022-12-31T02:49:15.869Z,0.44
2022-12-31T02:50:47.236Z,0.42
2022-12-31T02:52:18.568Z,0.47
2022-12-31T02:53:50.065Z,0.44
2022-12-31T02:55:21.406Z,0.41
2022-12-31T02:56:52.760Z,0.45
2022-12-31T02:58:26.508Z,0.40
2022-12-31T02:59:58.020Z,0.55
2022-12-31T03:01:29.688Z,0.45
2022-12-31T03:03:01.112Z,0.41
2022-12-31T03:04:32.489Z,0.44
2022-12-31T03:06:03.889Z,0.47
2022-12-31T03:07:35.174Z,0.39
2022-12-31T03:09:06.564Z,0.45
2022-12-31T03:10:38.086Z,0.31
2022-12-31T03:12:09.627Z,0.37
2022-12-31T03:13:45.928Z,0.35
2022-12-31T03:15:17.515Z,0.37
2022-12-31T03:16:48.840Z,0.41
2022-12-31T03:18:20.154Z,0.47
2022-12-31T03:19:51.544Z,0.52
2022-12-31T03:21:22.964Z,0.45
2022-12-31T03:22:54.299Z,0.43
2022-12-31T03:24:25.693Z,0.45
2022-12-31T03:25:57.005Z,0.46
2022-12-31T03:27:28.548Z,0.52
2022-12-31T03:29:00.105Z,0.42
2022-12-31T03:30:32.722Z,0.41
2022-12-31T03:32:04.115Z,0.39
2022-12-31T03:33:35.451Z,0.44
2022-12-31T03:35:07.032Z,0.39
2022-12-31T03:36:38.757Z,0.45
2022-12-31T03:38:15.231Z,0.38
2022-12-31T03:39:46.705Z,0.40
2022-12-31T03:41:18.293Z,0.48
2022-12-31T03:42:49.645Z,0.43
2022-12-31T03:44:20.962Z,0.56
2022-12-31T03:45:52.633Z,0.47
2022-12-31T03:47:24.269Z,0.45
2022-12-31T03:48:56.144Z,0.43
2022-12-31T03:50:27.605Z,0.44
2022-12-31T03:51:59.000Z,0.46
2022-12-31T03:53:30.324Z,0.45
2022-12-31T03:55:01.825Z,0.42
2022-12-31T03:56:33.439Z,0.43
2022-12-31T03:58:04.907Z,0.45
2022-12-31T03:59:36.412Z,0.41
2022-12-31T04:01:08.405Z,0.43
2022-12-31T04:02:40.003Z,0.40
2022-12-31T04:04:11.593Z,0.43
2022-12-31T04:05:43.012Z,0.45
2022-12-31T04:07:14.422Z,0.37
2022-12-31T04:08:46.004Z,0.48
2022-12-31T04:10:17.539Z,0.42
2022-12-31T04:11:48.850Z,0.42
2022-12-31T04:13:20.245Z,0.44
2022-12-31T04:14:51.603Z,0.30
2022-12-31T04:16:23.027Z,0.38
2022-12-31T04:17:54.582Z,0.39
2022-12-31T04:19:25.936Z,0.39
2022-12-31T04:20:57.334Z,0.32
2022-12-31T04:22:28.679Z,0.42
2022-12-31T04:24:00.093Z,0.43
2022-12-31T04:25:31.431Z,0.50
2022-12-31T04:27:07.508Z,0.41
2022-12-31T04:28:39.759Z,0.35
2022-12-31T04:30:11.189Z,0.42
2022-12-31T04:31:42.942Z,0.41
2022-12-31T04:33:14.422Z,0.34
2022-12-31T04:34:45.766Z,0.42
2022-12-31T04:36:17.242Z,0.34
2022-12-31T04:37:48.571Z,0.34
2022-12-31T04:39:20.174Z,0.37
2022-12-31T04:40:51.737Z,0.30
2022-12-31T04:42:23.229Z,0.30
2022-12-31T04:43:54.613Z,0.44
2022-12-31T04:45:26.304Z,0.40
2022-12-31T04:46:57.697Z,0.31
2022-12-31T04:48:29.060Z,0.42
2022-12-31T04:50:05.631Z,0.32
2022-12-31T04:51:37.230Z,0.29
2022-12-31T04:53:09.030Z,0.37
2022-12-31T04:54:40.388Z,0.33
2022-12-31T04:56:11.724Z,0.31
2022-12-31T04:57:43.312Z,0.38
2022-12-31T04:59:14.662Z,0.37
2022-12-31T05:00:46.082Z,0.34
2022-12-31T05:02:17.652Z,0.27
2022-12-31T05:03:49.099Z,0.32
2022-12-31T05:05:20.489Z,0.36
2022-12-31T05:06:52.039Z,0.32
2022-12-31T05:08:23.369Z,0.28
2022-12-31T05:09:54.961Z,0.29
2022-12-31T05:11:26.332Z,0.50
2022-12-31T05:12:57.808Z,0.35
2022-12-31T05:14:29.167Z,0.30
2022-12-31T05:16:00.817Z,0.37
2022-12-31T05:17:32.232Z,0.38
2022-12-31T05:19:03.641Z,0.33
2022-12-31T05:20:35.336Z,0.41
2022-12-31T05:22:07.014Z,0.37
2022-12-31T05:23:38.393Z,0.39
2022-12-31T05:25:09.739Z,0.32
2022-12-31T05:26:41.256Z,0.38
2022-12-31T05:28:12.725Z,0.34
2022-12-31T05:29:44.127Z,0.29
2022-12-31T05:31:15.656Z,0.46
2022-12-31T05:32:46.990Z,0.39
2022-12-31T05:34:18.327Z,0.42
2022-12-31T05:35:49.675Z,0.42
2022-12-31T05:37:21.044Z,0.30
2022-12-31T05:38:52.451Z,0.34
2022-12-31T05:40:23.864Z,0.40
2022-12-31T05:41:55.182Z,0.40
2022-12-31T05:43:26.586Z,0.40
2022-12-31T05:44:57.956Z,0.63
2022-12-31T05:46:29.401Z,0.36
2022-12-31T05:48:00.920Z,0.33
2022-12-31T05:49:32.302Z,0.25
2022-12-31T05:51:03.766Z,0.45
2022-12-31T05:52:35.218Z,0.38
2022-12-31T05:54:06.690Z,0.25
2022-12-31T05:55:38.222Z,0.41
2022-12-31T05:57:09.523Z,0.52
2022-12-31T05:58:41.073Z,0.47
2022-12-31T06:00:12.410Z,0.34
2022-12-31T06:01:43.980Z,0.33
2022-12-31T06:03:15.523Z,0.43
2022-12-31T06:04:47.052Z,0.39
2022-12-31T06:06:18.662Z,0.41
2022-12-31T06:07:50.157Z,0.42
2022-12-31T06:09:21.956Z,0.39
2022-12-31T06:10:53.462Z,0.39
2022-12-31T06:12:24.876Z,0.47
2022-12-31T06:13:57.510Z,0.41
2022-12-31T06:15:28.862Z,0.41
2022-12-31T06:17:00.404Z,0.54
2022-12-31T06:18:32.152Z,0.45
2022-12-31T06:20:08.886Z,0.34
2022-12-31T06:21:43.728Z,0.36
2022-12-31T06:23:15.080Z,0.34
2022-12-31T06:24:46.645Z,0.47
2022-12-31T06:26:18.236Z,0.42
2022-12-31T06:27:49.804Z,0.32
2022-12-31T06:29:21.240Z,0.41
2022-12-31T06:30:52.901Z,0.42
2022-12-31T06:32:24.370Z,0.49
2022-12-31T06:33:55.835Z,0.42
2022-12-31T06:35:27.875Z,0.44
2022-12-31T06:36:59.449Z,0.45
2022-12-31T06:38:30.956Z,0.47
2022-12-31T06:40:02.363Z,0.31
2022-12-31T06:41:33.869Z,0.43
2022-12-31T06:43:05.289Z,0.56
2022-12-31T06:44:36.610Z,0.64
2022-12-31T06:46:08.352Z,0.49
2022-12-31T06:47:39.901Z,0.52
2022-12-31T06:49:11.364Z,0.46
2022-12-31T06:50:42.781Z,0.44
2022-12-31T06:52:14.346Z,0.50
2022-12-31T06:53:45.746Z,0.49
2022-12-31T06:55:17.129Z,0.45
2022-12-31T06:56:48.512Z,0.45
2022-12-31T06:58:19.912Z,0.42
2022-12-31T06:59:51.346Z,0.41
2022-12-31T07:01:22.895Z,0.42
2022-12-31T07:02:54.480Z,0.72
2022-12-31T07:04:25.825Z,0.41
2022-12-31T07:05:57.270Z,0.58
2022-12-31T07:07:28.728Z,0.69
2022-12-31T07:09:00.164Z,0.59
2022-12-31T07:10:31.645Z,0.66
2022-12-31T07:12:02.938Z,0.68
2022-12-31T07:13:34.359Z,0.62
2022-12-31T07:15:05.792Z,0.54
2022-12-31T07:16:37.202Z,0.43
2022-12-31T07:18:08.775Z,0.48
2022-12-31T07:19:40.240Z,0.52
2022-12-31T07:21:11.576Z,0.43
2022-12-31T07:22:43.184Z,0.62
2022-12-31T07:24:14.595Z,0.59
2022-12-31T07:25:45.954Z,0.48
2022-12-31T07:27:17.403Z,0.61
2022-12-31T07:28:49.117Z,0.41
2022-12-31T07:30:20.511Z,0.60
2022-12-31T07:31:52.029Z,0.47
2022-12-31T07:33:23.410Z,0.55
2022-12-31T07:34:54.789Z,0.46
2022-12-31T07:36:26.341Z,0.43
2022-12-31T07:37:58.177Z,0.52
2022-12-31T07:39:30.694Z,0.61
2022-12-31T07:41:07.371Z,0.58
2022-12-31T07:42:40.577Z,0.59
2022-12-31T07:44:12.299Z,0.65
2022-12-31T07:45:45.317Z,0.44
2022-12-31T07:47:16.724Z,0.52
2022-12-31T07:48:48.114Z,0.50
2022-12-31T07:50:19.616Z,0.55
2022-12-31T07:51:52.088Z,0.51
2022-12-31T07:53:28.524Z,0.43
2022-12-31T07:55:00.669Z,0.49
2022-12-31T07:56:32.602Z,0.50
2022-12-31T07:58:04.160Z,0.47
2022-12-31T07:59:35.491Z,0.67
2022-12-31T08:01:07.015Z,0.65
2022-12-31T08:02:38.628Z,0.53
2022-12-31T08:04:09.997Z,0.54
2022-12-31T08:05:41.481Z,0.52
2022-12-31T08:07:13.048Z,0.58
2022-12-31T08:08:45.783Z,0.61
2022-12-31T08:10:18.063Z,0.87
2022-12-31T08:14:09.400Z,0.58
2022-12-31T08:15:40.851Z,0.59
2022-12-31T08:17:12.224Z,0.59
2022-12-31T08:18:43.675Z,0.70
2022-12-31T08:20:15.339Z,0.53
2022-12-31T08:21:46.801Z,0.61
2022-12-31T08:23:18.342Z,0.61
2022-12-31T08:24:49.722Z,0.54
2022-12-31T08:26:21.119Z,0.55
2022-12-31T08:27:52.550Z,0.55
2022-12-31T08:29:23.934Z,0.52
2022-12-31T08:30:55.419Z,0.56
2022-12-31T08:32:26.827Z,0.49
2022-12-31T08:34:02.103Z,0.55
2022-12-31T08:35:37.222Z,0.68
2022-12-31T08:37:08.759Z,0.53
2022-12-31T08:38:40.159Z,0.44
2022-12-31T08:40:11.745Z,0.51
2022-12-31T08:41:43.477Z,0.37
2022-12-31T08:43:14.883Z,0.46
2022-12-31T08:44:46.383Z,0.53
2022-12-31T08:46:17.902Z,0.47
2022-12-31T08:47:49.385Z,0.60
2022-12-31T08:49:20.923Z,0.61
2022-12-31T08:50:52.817Z,0.70
2022-12-31T08:52:24.126Z,0.63
2022-12-31T08:53:55.461Z,0.48
2022-12-31T08:55:31.901Z,0.65
2022-12-31T08:57:03.306Z,0.59
2022-12-31T08:58:49.255Z,0.41
2022-12-31T09:00:20.837Z,0.47
2022-12-31T09:01:52.533Z,0.76
2022-12-31T09:03:23.972Z,0.51
2022-12-31T09:04:55.369Z,0.57
2022-12-31T09:06:26.786Z,0.48
2022-12-31T09:07:58.300Z,0.39
2022-12-31T09:09:29.800Z,0.54
2022-12-31T09:11:01.350Z,0.54
2022-12-31T09:12:33.642Z,0.54
2022-12-31T09:14:04.948Z,0.52
2022-12-31T09:15:36.420Z,0.59
2022-12-31T09:17:07.801Z,0.52
2022-12-31T09:18:39.214Z,0.43
2022-12-31T09:20:10.620Z,0.53
2022-12-31T09:21:41.934Z,0.56
2022-12-31T09:23:13.467Z,0.61
2022-12-31T09:24:45.086Z,0.39
2022-12-31T09:26:16.685Z,0.67
2022-12-31T09:27:48.086Z,0.51
2022-12-31T09:29:19.651Z,0.54
2022-12-31T09:30:51.223Z,0.53
2022-12-31T09:32:22.641Z,0.60
2022-12-31T09:33:54.179Z,0.61
2022-12-31T09:35:25.565Z,0.61
2022-12-31T09:36:56.995Z,0.64
2022-12-31T09:38:28.398Z,0.55
2022-12-31T09:39:59.950Z,0.55
2022-12-31T09:41:31.429Z,0.63
2022-12-31T09:43:02.820Z,0.68
2022-12-31T09:44:34.158Z,0.70
2022-12-31T09:46:06.422Z,0.51
2022-12-31T09:47:37.872Z,0.60
2022-12-31T09:49:09.255Z,0.68
2022-12-31T09:50:40.607Z,0.75
2022-12-31T09:52:11.960Z,0.61
2022-12-31T09:53:43.334Z,0.62
2022-12-31T09:55:14.727Z,0.45
2022-12-31T09:56:46.463Z,0.75
2022-12-31T09:58:18.167Z,0.63
2022-12-31T09:59:54.896Z,0.57
2022-12-31T10:01:26.453Z,0.57
2022-12-31T10:02:58.025Z,0.67
2022-12-31T10:04:29.573Z,0.64
2022-12-31T10:06:01.141Z,0.98
2022-12-31T10:07:32.657Z,0.76
2022-12-31T10:09:04.124Z,0.71
2022-12-31T10:10:35.462Z,0.65
2022-12-31T10:12:06.941Z,0.78
2022-12-31T10:13:38.420Z,0.60
2022-12-31T10:15:09.739Z,0.74
2022-12-31T10:16:41.303Z,0.80
2022-12-31T10:18:12.867Z,0.59
2022-12-31T10:19:44.439Z,0.67
2022-12-31T10:21:15.819Z,0.68
2022-12-31T10:22:47.312Z,0.66
2022-12-31T10:24:18.672Z,0.78
2022-12-31T10:25:50.123Z,0.78
2022-12-31T10:27:22.554Z,0.82
2022-12-31T10:28:54.080Z,0.85
2022-12-31T10:30:25.482Z,0.78
2022-12-31T10:31:56.914Z,0.88
2022-12-31T10:33:28.430Z,0.65
2022-12-31T10:35:04.930Z,0.69
2022-12-31T10:36:36.265Z,0.72
2022-12-31T10:38:07.682Z,0.65
2022-12-31T10:39:39.121Z,0.65
2022-12-31T10:41:10.503Z,0.60
2022-12-31T10:42:42.185Z,0.65
2022-12-31T10:44:13.656Z,0.74
2022-12-31T10:45:45.164Z,0.70
2022-12-31T10:47:16.615Z,0.66
2022-12-31T10:48:47.962Z,0.68
2022-12-31T10:50:19.389Z,0.74
2022-12-31T10:51:50.853Z,0.62
2022-12-31T10:53:22.225Z,0.58
2022-12-31T10:54:53.638Z,0.59
2022-12-31T10:56:24.984Z,0.66
2022-12-31T10:58:03.621Z,0.47
2022-12-31T10:59:35.659Z,0.95
2022-12-31T11:01:07.243Z,0.72
2022-12-31T11:02:38.989Z,0.67
2022-12-31T11:04:10.583Z,0.80
2022-12-31T11:05:41.948Z,0.69
2022-12-31T11:07:13.433Z,0.76
2022-12-31T11:08:44.783Z,0.75
2022-12-31T11:10:21.207Z,0.77
2022-12-31T11:11:52.708Z,0.66
2022-12-31T11:13:24.170Z,0.74
2022-12-31T11:14:55.825Z,0.68
2022-12-31T11:16:27.354Z,0.98
2022-12-31T11:17:59.018Z,1.05
2022-12-31T11:19:30.451Z,0.90
2022-12-31T11:21:01.950Z,0.71
2022-12-31T11:22:33.335Z,0.81
2022-12-31T11:24:04.778Z,0.71
2022-12-31T11:25:36.155Z,0.72
2022-12-31T11:27:07.588Z,0.80
2022-12-31T11:28:39.042Z,0.89
2022-12-31T11:30:10.426Z,0.55
2022-12-31T11:31:42.007Z,0.75
2022-12-31T11:33:13.391Z,0.74
2022-12-31T11:34:44.867Z,0.75
2022-12-31T11:36:21.355Z,0.92
2022-12-31T11:37:52.834Z,0.73
2022-12-31T11:39:31.319Z,0.81
2022-12-31T11:41:03.016Z,0.60
2022-12-31T11:42:34.562Z,0.84
2022-12-31T11:44:06.043Z,0.88
2022-12-31T11:45:37.632Z,0.84
2022-12-31T11:47:14.164Z,0.66
2022-12-31T11:48:45.959Z,0.82
2022-12-31T11:50:17.364Z,0.78
2022-12-31T11:51:50.762Z,0.76
2022-12-31T11:53:22.424Z,0.73
2022-12-31T11:54:54.016Z,0.88
2022-12-31T11:56:25.423Z,0.73
2022-12-31T11:57:56.862Z,0.82
2022-12-31T11:59:28.266Z,0.91
2022-12-31T12:01:00.490Z,1.12
2022-12-31T12:02:31.942Z,0.80
2022-12-31T12:04:03.862Z,0.85
2022-12-31T12:05:35.598Z,0.58
2022-12-31T12:07:07.012Z,0.68
2022-12-31T12:08:38.608Z,1.11
2022-12-31T12:10:10.245Z,0.91
2022-12-31T12:11:41.873Z,0.68
2022-12-31T12:13:13.355Z,0.79
2022-12-31T12:14:44.739Z,0.82
2022-12-31T12:16:16.195Z,0.83
2022-12-31T12:17:47.740Z,0.77
2022-12-31T12:19:19.895Z,0.71
2022-12-31T12:20:51.292Z,0.73
2022-12-31T12:22:22.805Z,0.70
2022-12-31T12:23:54.159Z,0.63
2022-12-31T12:25:25.568Z,0.89
2022-12-31T12:26:57.059Z,0.83
2022-12-31T12:28:28.410Z,0.72
2022-12-31T12:29:59.842Z,0.71
2022-12-31T12:31:31.252Z,0.90
2022-12-31T12:33:02.826Z,0.75
2022-12-31T12:34:34.287Z,0.94
2022-12-31T12:36:05.740Z,0.75
2022-12-31T12:37:37.109Z,0.81
2022-12-31T12:39:08.555Z,0.98
2022-12-31T12:40:39.966Z,0.83
2022-12-31T12:42:11.398Z,0.71
2022-12-31T12:43:42.835Z,0.97
2022-12-31T12:45:14.641Z,0.85
2022-12-31T12:46:48.217Z,0.96
2022-12-31T12:48:20.933Z,0.89
2022-12-31T12:49:52.427Z,0.95
2022-12-31T12:51:23.912Z,0.92
2022-12-31T12:52:59.129Z,0.95
2022-12-31T12:54:31.501Z,1.05
2022-12-31T12:56:02.867Z,1.08
2022-12-31T12:57:34.531Z,0.91
2022-12-31T12:59:05.794Z,1.06
2022-12-31T13:00:37.167Z,0.93
2022-12-31T13:02:09.346Z,1.20
2022-12-31T13:04:00.009Z,1.16
2022-12-31T13:05:55.136Z,1.05
2022-12-31T13:07:27.729Z,1.54
2022-12-31T13:08:59.429Z,0.96
2022-12-31T13:10:30.893Z,1.23
2022-12-31T13:12:07.314Z,1.11
2022-12-31T13:13:39.258Z,1.36
2022-12-31T13:15:10.737Z,1.18
2022-12-31T13:16:47.234Z,1.02
2022-12-31T13:18:18.705Z,1.32
2022-12-31T13:19:50.106Z,1.10
2022-12-31T13:21:26.733Z,1.18
2022-12-31T13:22:58.509Z,1.06
2022-12-31T13:24:29.969Z,1.07
2022-12-31T13:26:01.396Z,0.89
2022-12-31T13:27:32.823Z,1.18
2022-12-31T13:29:04.437Z,0.83
2022-12-31T13:30:35.895Z,1.06
2022-12-31T13:32:07.310Z,0.91
2022-12-31T13:33:38.651Z,0.77
2022-12-31T13:35:09.981Z,0.82
2022-12-31T13:36:41.707Z,0.71
2022-12-31T13:38:13.280Z,0.74
2022-12-31T13:39:44.662Z,0.95
2022-12-31T13:41:16.054Z,0.97
2022-12-31T13:42:47.433Z,1.12
2022-12-31T13:44:18.822Z,0.86
2022-12-31T13:45:50.397Z,0.83
2022-12-31T13:47:21.763Z,1.08
2022-12-31T13:48:53.148Z,1.07
2022-12-31T13:50:24.498Z,0.96
2022-12-31T13:51:55.960Z,1.14
2022-12-31T13:53:27.488Z,0.92
2022-12-31T13:54:58.899Z,1.09
2022-12-31T13:56:30.252Z,0.89
2022-12-31T13:58:01.555Z,1.15
2022-12-31T13:59:33.015Z,1.12
2022-12-31T14:01:04.469Z,1.10
2022-12-31T14:02:36.050Z,1.00
2022-12-31T14:04:07.491Z,0.95
2022-12-31T14:05:38.843Z,0.88
2022-12-31T14:07:10.170Z,0.96
2022-12-31T14:08:41.502Z,0.94
2022-12-31T14:10:12.940Z,1.10
2022-12-31T14:11:44.362Z,0.75
2022-12-31T14:13:15.777Z,0.85
2022-12-31T14:14:47.184Z,1.10
2022-12-31T14:16:18.717Z,0.92
2022-12-31T14:17:50.291Z,0.99
2022-12-31T14:19:25.995Z,1.25
2022-12-31T14:21:00.873Z,1.00
2022-12-31T14:22:32.553Z,1.16
2022-12-31T14:24:03.937Z,1.09
2022-12-31T14:25:35.262Z,0.94
2022-12-31T14:27:06.743Z,1.25
2022-12-31T14:28:43.073Z,0.87
2022-12-31T14:30:17.938Z,0.94
2022-12-31T14:31:49.826Z,1.26
2022-12-31T14:33:21.248Z,1.18
2022-12-31T14:34:52.698Z,1.12
2022-12-31T14:36:24.039Z,1.17
2022-12-31T14:37:55.477Z,1.28
2022-12-31T14:39:26.851Z,1.06
2022-12-31T14:40:58.255Z,1.18
2022-12-31T14:42:29.802Z,1.13
2022-12-31T14:44:01.179Z,1.09
2022-12-31T14:45:32.619Z,1.18
2022-12-31T14:47:03.964Z,1.20
2022-12-31T14:48:35.619Z,1.23
2022-12-31T14:50:06.959Z,1.34
2022-12-31T14:51:38.985Z,1.28
2022-12-31T14:53:10.335Z,1.19
2022-12-31T14:54:42.033Z,1.31
2022-12-31T14:56:13.347Z,1.49
2022-12-31T14:58:17.081Z,1.38
2022-12-31T14:59:57.830Z,1.35
2022-12-31T15:01:29.385Z,1.24
2022-12-31T15:03:00.905Z,1.24
2022-12-31T15:04:32.630Z,1.45
2022-12-31T15:06:04.112Z,1.18
2022-12-31T15:07:35.571Z,1.28
2022-12-31T15:09:08.633Z,1.59
2022-12-31T15:10:40.556Z,1.52
2022-12-31T15:12:11.929Z,1.50
2022-12-31T15:13:43.361Z,1.55
2022-12-31T15:15:14.878Z,1.37
2022-12-31T15:16:46.492Z,1.41
2022-12-31T15:18:18.118Z,1.64
2022-12-31T15:19:49.536Z,1.51
2022-12-31T15:21:21.132Z,1.48
2022-12-31T15:22:52.547Z,1.68
2022-12-31T15:24:23.920Z,1.66
2022-12-31T15:25:55.324Z,1.38
2022-12-31T15:27:26.786Z,1.43
2022-12-31T15:28:58.213Z,1.57
2022-12-31T15:30:29.773Z,1.46
2022-12-31T15:32:01.173Z,1.33
2022-12-31T15:33:32.727Z,1.68
2022-12-31T15:35:04.402Z,1.67
2022-12-31T15:36:35.927Z,1.60
2022-12-31T15:38:07.516Z,1.36
2022-12-31T15:39:39.059Z,1.31
2022-12-31T15:41:15.471Z,1.39
2022-12-31T15:42:50.208Z,1.48
2022-12-31T15:44:21.952Z,1.43
2022-12-31T15:45:53.367Z,1.36
2022-12-31T15:47:24.806Z,1.41
2022-12-31T15:49:02.001Z,1.71
2022-12-31T15:50:35.849Z,1.59
2022-12-31T15:52:07.171Z,1.71
2022-12-31T15:53:38.704Z,1.62
2022-12-31T15:55:10.176Z,1.44
2022-12-31T15:56:41.690Z,1.39
2022-12-31T15:58:13.136Z,1.47
2022-12-31T15:59:44.680Z,1.30
2022-12-31T16:02:02.043Z,1.52
2022-12-31T16:03:34.166Z,1.32
2022-12-31T16:05:05.480Z,1.15
2022-12-31T16:06:37.040Z,1.26
2022-12-31T16:08:08.476Z,1.42
2022-12-31T16:10:04.184Z,1.20
2022-12-31T16:11:36.597Z,1.26
2022-12-31T16:13:10.103Z,1.45
2022-12-31T16:14:41.977Z,1.13
2022-12-31T16:18:25.433Z,1.23
2022-12-31T16:19:57.400Z,1.26
2022-12-31T16:21:29.645Z,1.44
2022-12-31T16:23:01.341Z,1.40
2022-12-31T16:24:32.899Z,1.24
2022-12-31T16:26:10.300Z,1.44
2022-12-31T16:27:41.880Z,1.27
2022-12-31T16:29:33.723Z,1.59
2022-12-31T16:31:08.263Z,1.43
2022-12-31T16:32:39.886Z,1.64
2022-12-31T16:34:11.551Z,1.40
2022-12-31T16:35:42.988Z,1.17
2022-12-31T16:37:14.458Z,1.52
2022-12-31T16:39:07.881Z,1.36
2022-12-31T16:40:39.450Z,1.49
2022-12-31T16:42:11.365Z,1.24
2022-12-31T16:43:43.127Z,1.41
2022-12-31T16:45:14.791Z,1.39
2022-12-31T16:46:46.137Z,1.09
2022-12-31T16:48:19.385Z,1.22
2022-12-31T16:49:50.893Z,1.37
2022-12-31T16:51:22.571Z,1.28
2022-12-31T16:52:54.833Z,1.26
2022-12-31T16:54:26.377Z,1.48
2022-12-31T16:55:58.139Z,1.31
2022-12-31T16:57:29.680Z,1.22
2022-12-31T16:59:01.668Z,1.21
2022-12-31T17:02:51.775Z,1.20
2022-12-31T17:04:23.245Z,1.36
2022-12-31T17:05:55.171Z,1.67
2022-12-31T17:07:26.861Z,1.65
2022-12-31T17:08:58.316Z,1.30
2022-12-31T17:10:30.050Z,1.08
2022-12-31T17:12:01.669Z,1.49
2022-12-31T17:13:33.313Z,1.29
2022-12-31T17:15:04.961Z,1.38
2022-12-31T17:16:36.484Z,1.38
2022-12-31T17:18:08.532Z,1.53
2022-12-31T17:19:40.166Z,1.44
2022-12-31T17:21:44.833Z,1.31
2022-12-31T17:23:16.627Z,1.29
2022-12-31T17:24:49.964Z,1.07
2022-12-31T17:26:24.495Z,1.07
2022-12-31T17:27:56.514Z,1.35
2022-12-31T17:29:28.199Z,1.31
2022-12-31T17:31:00.169Z,1.39
2022-12-31T17:32:32.006Z,1.48
2022-12-31T17:34:03.761Z,1.41
2022-12-31T17:35:35.383Z,1.76
2022-12-31T17:37:16.088Z,1.48
2022-12-31T17:38:49.640Z,1.64
2022-12-31T17:42:12.548Z,1.47
2022-12-31T17:43:44.117Z,1.57
2022-12-31T17:45:15.613Z,1.32
2022-12-31T17:46:47.486Z,1.42
2022-12-31T17:48:19.331Z,1.54
2022-12-31T17:49:58.883Z,1.17
2022-12-31T17:51:30.484Z,1.20
2022-12-31T17:53:02.347Z,1.54
2022-12-31T17:54:33.824Z,1.50
2022-12-31T17:56:15.388Z,1.35
2022-12-31T17:57:47.071Z,1.48
2022-12-31T17:59:18.931Z,1.48
2022-12-31T18:00:50.653Z,1.40
2022-12-31T18:02:22.250Z,1.46
2022-12-31T18:03:53.949Z,1.47
2022-12-31T18:05:41.397Z,1.63
2022-12-31T18:07:13.344Z,1.81
2022-12-31T18:08:45.316Z,1.92
2022-12-31T18:10:16.667Z,1.83
2022-12-31T18:12:10.063Z,1.97
2022-12-31T18:13:41.743Z,2.15
2022-12-31T18:15:13.626Z,1.67
2022-12-31T18:16:45.120Z,1.57
2022-12-31T18:18:22.508Z,1.63
2022-12-31T18:20:05.712Z,1.37
2022-12-31T18:21:38.263Z,1.28
2022-12-31T18:23:09.942Z,1.60
2022-12-31T18:24:42.122Z,1.68
2022-12-31T18:26:13.814Z,1.40
2022-12-31T18:27:45.279Z,1.33
2022-12-31T18:29:16.940Z,1.45
2022-12-31T18:30:49.538Z,1.26
2022-12-31T18:32:20.989Z,1.43
2022-12-31T18:36:08.865Z,1.52
2022-12-31T18:37:41.509Z,1.58
2022-12-31T18:39:13.164Z,1.63
2022-12-31T18:40:44.703Z,1.48
2022-12-31T18:44:38.006Z,1.49
2022-12-31T18:46:09.407Z,1.41
2022-12-31T18:47:40.821Z,1.56
2022-12-31T18:51:20.405Z,1.77
2022-12-31T18:52:51.919Z,1.59
2022-12-31T18:54:28.619Z,1.52
2022-12-31T18:56:00.103Z,1.45
2022-12-31T18:57:31.451Z,1.48
2022-12-31T18:59:02.773Z,1.64
2022-12-31T19:00:34.197Z,1.85
2022-12-31T19:02:05.576Z,1.71
2022-12-31T19:03:37.274Z,1.78
2022-12-31T19:05:08.822Z,1.95
2022-12-31T19:06:40.292Z,1.73
2022-12-31T19:08:11.680Z,1.83
2022-12-31T19:10:19.068Z,1.68
2022-12-31T19:11:50.681Z,1.45
2022-12-31T19:13:22.455Z,1.67
2022-12-31T19:14:54.180Z,1.59
2022-12-31T19:16:25.949Z,2.16
2022-12-31T19:17:57.461Z,1.54
2022-12-31T19:19:28.878Z,1.89
2022-12-31T19:21:00.368Z,1.73
2022-12-31T19:22:31.935Z,1.68
2022-12-31T19:24:03.524Z,1.82
2022-12-31T19:25:35.336Z,1.65
2022-12-31T19:27:06.924Z,1.57
2022-12-31T19:28:38.275Z,1.79
2022-12-31T19:30:24.891Z,1.90
2022-12-31T19:31:56.724Z,1.50
2022-12-31T19:33:28.281Z,1.48
2022-12-31T19:34:59.860Z,1.48
2022-12-31T19:38:43.707Z,1.68
2022-12-31T19:40:15.100Z,1.72
2022-12-31T19:41:50.117Z,1.33
2022-12-31T19:45:37.746Z,1.70
2022-12-31T19:47:09.344Z,1.74
2022-12-31T19:48:40.670Z,1.85
2022-12-31T19:50:17.166Z,1.87
2022-12-31T19:51:48.789Z,1.83
2022-12-31T19:53:20.173Z,2.00
2022-12-31T19:55:36.505Z,1.89
2022-12-31T19:57:07.832Z,1.74
2022-12-31T19:58:39.733Z,2.81
2022-12-31T20:00:11.489Z,2.04
2022-12-31T20:01:43.366Z,3.39
2022-12-31T20:03:15.188Z,4.38
2022-12-31T20:04:51.621Z,2.94
2022-12-31T20:06:23.142Z,2.25
2022-12-31T20:07:55.913Z,1.88
2022-12-31T20:09:27.980Z,2.11
2022-12-31T20:10:59.725Z,1.91
2022-12-31T20:13:13.288Z,1.71
2022-12-31T20:14:44.811Z,1.78
2022-12-31T20:16:16.296Z,1.81
2022-12-31T20:17:48.440Z,1.96
2022-12-31T20:19:19.883Z,2.18
2022-12-31T20:20:55.498Z,1.95
2022-12-31T20:22:27.747Z,1.71
2022-12-31T20:23:59.314Z,1.87
2022-12-31T20:25:30.698Z,2.09
2022-12-31T20:27:02.033Z,1.90
2022-12-31T20:28:33.987Z,1.87
2022-12-31T20:30:05.525Z,1.74
2022-12-31T20:31:36.915Z,1.70
2022-12-31T20:33:08.251Z,1.72
2022-12-31T20:34:39.588Z,1.83
2022-12-31T20:36:11.115Z,2.06
2022-12-31T20:37:42.708Z,1.98
2022-12-31T20:39:14.174Z,1.71
2022-12-31T20:40:47.161Z,1.60
2022-12-31T20:42:18.960Z,2.15
2022-12-31T20:43:50.305Z,1.61
2022-12-31T20:45:21.796Z,2.16
2022-12-31T20:46:53.257Z,2.67
2022-12-31T20:48:25.023Z,1.97
2022-12-31T20:50:11.001Z,1.89